CYTZ/YTZ METAR and TAF weather

Enter ICAO airport designator
Station Type Date Time Source
CYTZ METAR 2018/11/15 06:00 UTC NOAA

CYTZ 150600Z AUTO 05007KT 9SM BKN041 M03/M07 A3054 RMK SLP347


Station Type Date Time Source
CYTZ Decoded METAR 2018/11/15 06:00 UTC NOAA

Toronto Island Airport Automated Reporting Station, Canada (CYTZ) 43-38N 079-24W
Nov 15, 2018 - 01:00 AM EST / 2018.11.15 0600 UTC
Wind: from the NE (050 degrees) at 8 MPH (7 KT):0
Visibility: 9 mile(s):0
Sky conditions: mostly cloudy
Temperature: 26 F (-3 C)
Windchill: 17 F (-8 C):1
Dew Point: 19 F (-7 C)
Relative Humidity: 73%
Pressure (altimeter): 30.54 in. Hg (1034 hPa)
ob: CYTZ 150600Z AUTO 05007KT 9SM BKN041 M03/M07 A3054 RMK SLP347
cycle: 6

Station Type Date Time Source
CYTZ TAF 2018/11/15 02:44 UTC NOAA

TAF CYTZ 150139Z 1502/1602 02008KT P6SM FEW030
BECMG 1504/1506 05008KT
FM150900 10012KT P6SM SCT030 OVC240
FM151500 11015KT P6SM FEW025 BKN130 OVC200
FM151900 10012KT 6SM -SN BKN030 OVC070
FM152100 09012KT 21/2SM -SN OVC030
FM152300 09015KT 1SM -SN VV009
RMK FCST BASED ON AUTO OBS. NXT FCST BY 150800Z


Example: see airport list